createdAt,value
2023-04-04T00:00:45.298Z,-0.83
2023-04-04T00:03:12.377Z,-0.96
2023-04-04T00:06:01.250Z,-0.87
2023-04-04T00:08:40.008Z,-0.86
2023-04-04T00:11:22.824Z,-0.85
2023-04-04T00:14:12.060Z,-0.94
2023-04-04T00:16:56.413Z,-0.93
2023-04-04T00:19:44.403Z,-0.97
2023-04-04T00:22:11.577Z,-0.99
2023-04-04T00:24:38.710Z,-1.01
2023-04-04T00:27:05.990Z,-1.03
2023-04-04T00:29:34.669Z,-1.11
2023-04-04T00:32:01.727Z,-1.21
2023-04-04T00:34:28.755Z,-1.18
2023-04-04T00:36:55.720Z,-1.26
2023-04-04T00:39:24.477Z,-1.29
2023-04-04T00:41:51.782Z,-1.39
2023-04-04T00:44:19.016Z,-1.42
2023-04-04T00:46:46.218Z,-1.37
2023-04-04T00:49:13.152Z,-1.49
2023-04-04T00:51:40.139Z,-1.42
2023-04-04T00:54:07.229Z,-1.48
2023-04-04T00:56:37.776Z,-1.65
2023-04-04T00:59:04.785Z,-1.50
2023-04-04T01:01:33.336Z,-1.50
2023-04-04T01:04:00.572Z,-1.49
2023-04-04T01:06:56.363Z,-1.55
2023-04-04T01:09:45.664Z,-1.63
2023-04-04T01:12:43.041Z,-1.58
2023-04-04T01:15:37.798Z,-1.58
2023-04-04T01:18:23.802Z,-1.59
2023-04-04T01:21:26.409Z,-1.61
2023-04-04T01:24:01.567Z,-1.63
2023-04-04T01:26:29.300Z,-1.65
2023-04-04T01:28:57.429Z,-1.68
2023-04-04T01:31:45.587Z,-1.67
2023-04-04T01:34:21.224Z,-1.79
2023-04-04T01:36:54.774Z,-1.70
2023-04-04T01:39:35.910Z,-1.90
2023-04-04T01:42:03.955Z,-1.83
2023-04-04T01:44:31.369Z,-1.84
2023-04-04T01:46:58.349Z,-1.91
2023-04-04T01:49:25.531Z,-1.98
2023-04-04T01:51:53.184Z,-2.01
2023-04-04T01:54:20.236Z,-2.04
2023-04-04T01:56:47.179Z,-2.03
2023-04-04T01:59:14.257Z,-2.05
2023-04-04T02:01:41.249Z,-2.11
2023-04-04T02:04:08.850Z,-2.07
2023-04-04T02:06:36.514Z,-2.13
2023-04-04T02:09:03.592Z,-2.15
2023-04-04T02:11:30.934Z,-2.18
2023-04-04T02:13:58.784Z,-2.27
2023-04-04T02:16:26.036Z,-2.25
2023-04-04T02:18:53.263Z,-2.22
2023-04-04T02:21:20.249Z,-2.30
2023-04-04T02:23:47.209Z,-2.27
2023-04-04T02:26:14.247Z,-2.31
2023-04-04T02:28:41.206Z,-2.29
2023-04-04T02:31:08.219Z,-2.31
2023-04-04T02:33:35.236Z,-2.39
2023-04-04T02:36:02.662Z,-2.52
2023-04-04T02:38:29.683Z,-2.37
2023-04-04T02:40:56.663Z,-2.44
2023-04-04T02:43:23.672Z,-2.40
2023-04-04T02:45:50.941Z,-2.46
2023-04-04T02:48:17.970Z,-2.61
2023-04-04T02:50:46.633Z,-2.58
2023-04-04T02:53:13.828Z,-2.48
2023-04-04T02:55:40.774Z,-2.48
2023-04-04T02:58:07.764Z,-2.44
2023-04-04T03:00:34.890Z,-2.43
2023-04-04T03:03:01.977Z,-2.55
2023-04-04T03:05:32.181Z,-2.41
2023-04-04T03:07:59.945Z,-2.53
2023-04-04T03:10:30.217Z,-2.46
2023-04-04T03:12:57.793Z,-2.52
2023-04-04T03:15:26.123Z,-2.59
2023-04-04T03:17:53.668Z,-2.64
2023-04-04T03:20:20.838Z,-2.61
2023-04-04T03:22:48.238Z,-2.62
2023-04-04T03:25:15.176Z,-2.45
2023-04-04T03:27:42.175Z,-2.45
2023-04-04T03:30:10.190Z,-2.43
2023-04-04T03:32:38.292Z,-2.47
2023-04-04T03:35:07.270Z,-2.60
2023-04-04T03:37:34.720Z,-2.56
2023-04-04T03:40:01.867Z,-2.66
2023-04-04T03:42:28.833Z,-2.53
2023-04-04T03:44:55.864Z,-2.60
2023-04-04T03:47:22.972Z,-2.61
2023-04-04T03:49:51.802Z,-2.60
2023-04-04T03:52:19.070Z,-2.61
2023-04-04T03:54:46.455Z,-2.54
2023-04-04T03:57:13.526Z,-2.60
2023-04-04T03:59:40.550Z,-2.64
2023-04-04T04:02:07.582Z,-2.57
2023-04-04T04:04:34.572Z,-2.57
2023-04-04T04:07:02.800Z,-2.61
2023-04-04T04:09:29.812Z,-2.55
2023-04-04T04:11:56.911Z,-2.53
2023-04-04T04:14:23.901Z,-2.53
2023-04-04T04:16:50.952Z,-2.55
2023-04-04T04:19:18.080Z,-2.51
2023-04-04T04:21:45.141Z,-2.50
2023-04-04T04:24:12.200Z,-2.54
2023-04-04T04:26:39.245Z,-2.60
2023-04-04T04:29:07.762Z,-2.46
2023-04-04T04:31:34.746Z,-2.49
2023-04-04T04:34:01.759Z,-2.47
2023-04-04T04:36:28.805Z,-2.42
2023-04-04T04:38:55.823Z,-2.39
2023-04-04T04:41:22.897Z,-2.43
2023-04-04T04:43:49.842Z,-2.40
2023-04-04T04:46:16.872Z,-2.40
2023-04-04T04:48:44.051Z,-2.40
2023-04-04T04:51:11.094Z,-2.46
2023-04-04T04:53:38.104Z,-2.49
2023-04-04T04:56:05.628Z,-2.46
2023-04-04T04:58:32.934Z,-2.44
2023-04-04T05:00:59.988Z,-2.50
2023-04-04T05:03:28.009Z,-2.33
2023-04-04T05:05:55.048Z,-2.35
2023-04-04T05:08:22.702Z,-2.33
2023-04-04T05:10:51.145Z,-2.36
2023-04-04T05:13:18.650Z,-2.44
2023-04-04T05:15:47.272Z,-2.31
2023-04-04T05:18:14.390Z,-2.28
2023-04-04T05:20:41.890Z,-2.16
2023-04-04T05:23:09.137Z,-2.27
2023-04-04T05:25:36.074Z,-2.22
2023-04-04T05:28:04.237Z,-2.15
2023-04-04T05:30:31.219Z,-2.12
2023-04-04T05:32:58.190Z,-2.21
2023-04-04T05:35:26.396Z,-2.11
2023-04-04T05:37:53.406Z,-2.21
2023-04-04T05:40:20.801Z,-2.15
2023-04-04T05:42:58.159Z,-2.01
2023-04-04T05:45:26.199Z,-1.85
2023-04-04T05:47:53.305Z,-1.88
2023-04-04T05:50:20.329Z,-1.76
2023-04-04T05:52:47.375Z,-1.91
2023-04-04T05:55:14.449Z,-1.87
2023-04-04T05:57:49.002Z,-1.63
2023-04-04T06:00:17.565Z,-1.44
2023-04-04T06:02:47.577Z,-1.30
2023-04-04T06:05:15.015Z,-1.11
2023-04-04T06:07:41.963Z,-1.02
2023-04-04T06:10:09.617Z,-1.07
2023-04-04T06:12:36.603Z,-1.17
2023-04-04T06:15:03.745Z,-1.31
2023-04-04T06:17:31.173Z,-0.95
2023-04-04T06:19:58.152Z,-1.23
2023-04-04T06:22:25.115Z,-1.30
2023-04-04T06:24:52.057Z,-1.27
2023-04-04T06:27:19.120Z,-0.97
2023-04-04T06:29:46.040Z,-0.82
2023-04-04T06:32:13.229Z,-0.84
2023-04-04T06:34:40.164Z,-0.70
2023-04-04T06:37:07.242Z,-0.20
2023-04-04T06:39:34.660Z,-0.27
2023-04-04T06:42:01.748Z,-0.36
2023-04-04T06:44:28.756Z,-0.41
2023-04-04T06:46:56.378Z,-0.67
2023-04-04T06:49:23.409Z,-0.54
2023-04-04T06:51:51.159Z,-0.30
2023-04-04T06:54:18.235Z,-0.17
2023-04-04T06:56:45.144Z,-0.29
2023-04-04T06:59:12.894Z,-0.07
2023-04-04T07:01:39.980Z,0.32
2023-04-04T07:04:06.938Z,0.38
2023-04-04T07:06:33.885Z,0.46
2023-04-04T07:09:00.853Z,0.57
2023-04-04T07:11:27.832Z,0.08
2023-04-04T07:13:54.886Z,-0.01
2023-04-04T07:16:22.040Z,0.00
2023-04-04T07:18:49.081Z,0.35
2023-04-04T07:21:17.672Z,0.38
2023-04-04T07:23:44.622Z,0.34
2023-04-04T07:26:12.078Z,0.30
2023-04-04T07:28:39.050Z,0.44
2023-04-04T07:31:06.184Z,0.53
2023-04-04T07:33:33.199Z,0.23
2023-04-04T07:36:01.761Z,0.55
2023-04-04T07:38:29.136Z,0.68
2023-04-04T07:40:56.107Z,0.47
2023-04-04T07:43:23.048Z,0.35
2023-04-04T07:45:50.241Z,0.61
2023-04-04T07:48:17.462Z,0.71
2023-04-04T07:50:44.401Z,1.09
2023-04-04T07:53:11.645Z,0.72
2023-04-04T07:55:38.664Z,0.57
2023-04-04T07:58:06.247Z,0.79
2023-04-04T08:00:33.214Z,0.87
2023-04-04T08:03:01.286Z,1.03
2023-04-04T08:05:28.530Z,0.49
2023-04-04T08:07:55.547Z,0.74
2023-04-04T08:10:22.556Z,1.33
2023-04-04T08:12:49.896Z,1.39
2023-04-04T08:15:17.029Z,1.08
2023-04-04T08:17:44.095Z,1.31
2023-04-04T08:20:11.795Z,1.28
2023-04-04T08:22:40.603Z,1.44
2023-04-04T08:25:07.827Z,1.62
2023-04-04T08:27:35.114Z,1.67
2023-04-04T08:30:04.238Z,0.97
2023-04-04T08:32:32.336Z,0.99
2023-04-04T08:34:59.683Z,1.27
2023-04-04T08:37:26.706Z,1.33
2023-04-04T08:39:54.070Z,1.61
2023-04-04T08:42:23.722Z,1.30
2023-04-04T08:44:53.659Z,1.40
2023-04-04T08:47:21.813Z,1.28
2023-04-04T08:49:51.906Z,1.27
2023-04-04T08:52:20.927Z,1.20
2023-04-04T08:54:50.800Z,1.23
2023-04-04T08:57:17.802Z,1.38
2023-04-04T08:59:45.077Z,1.45
2023-04-04T09:02:12.248Z,1.28
2023-04-04T09:04:43.016Z,1.19
2023-04-04T09:07:14.874Z,1.17
2023-04-04T09:09:46.516Z,1.15
2023-04-04T09:12:15.307Z,1.21
2023-04-04T09:14:44.317Z,1.39
2023-04-04T09:17:11.405Z,1.51
2023-04-04T09:19:38.720Z,1.82
2023-04-04T09:22:11.651Z,1.85
2023-04-04T09:24:43.270Z,2.11
2023-04-04T09:27:12.061Z,1.90
2023-04-04T09:29:40.535Z,1.73
2023-04-04T09:32:15.007Z,2.06
2023-04-04T09:34:46.399Z,2.24
2023-04-04T09:37:15.804Z,2.20
2023-04-04T09:39:43.856Z,2.35
2023-04-04T09:42:12.630Z,2.51
2023-04-04T09:44:39.905Z,2.66
2023-04-04T09:47:31.041Z,2.79
2023-04-04T09:50:00.062Z,2.50
2023-04-04T09:52:27.651Z,3.12
2023-04-04T09:54:59.168Z,2.73
2023-04-04T09:57:29.547Z,3.28
2023-04-04T09:59:59.348Z,2.75
2023-04-04T10:02:27.377Z,2.49
2023-04-04T10:05:05.946Z,1.90
2023-04-04T10:07:33.977Z,1.97
2023-04-04T10:10:09.380Z,2.35
2023-04-04T10:12:39.197Z,2.32
2023-04-04T10:15:06.777Z,2.28
2023-04-04T10:17:41.304Z,2.21
2023-04-04T10:20:10.192Z,2.39
2023-04-04T10:22:39.027Z,2.28
2023-04-04T10:25:09.598Z,2.27
2023-04-04T10:27:38.928Z,2.43
2023-04-04T10:30:08.002Z,2.61
2023-04-04T10:33:04.987Z,2.94
2023-04-04T10:35:32.996Z,2.49
2023-04-04T10:38:03.301Z,2.19
2023-04-04T10:40:39.304Z,2.45
2023-04-04T10:43:07.138Z,2.73
2023-04-04T10:45:38.838Z,2.50
2023-04-04T10:48:10.548Z,2.37
2023-04-04T10:50:39.559Z,2.74
2023-04-04T10:53:08.438Z,2.84
2023-04-04T10:55:38.908Z,2.37
2023-04-04T10:58:06.654Z,3.00
2023-04-04T11:00:33.689Z,2.95
2023-04-04T11:03:02.758Z,2.99
2023-04-04T11:05:49.409Z,2.94
2023-04-04T11:08:25.430Z,2.75
2023-04-04T11:10:54.239Z,2.52
2023-04-04T11:13:26.762Z,2.39
2023-04-04T11:16:15.953Z,2.46
2023-04-04T11:18:43.741Z,2.37
2023-04-04T11:21:14.144Z,2.38
2023-04-04T11:23:50.446Z,2.47
2023-04-04T11:26:20.362Z,2.56
2023-04-04T11:28:47.452Z,2.76
2023-04-04T11:31:17.997Z,3.02
2023-04-04T11:33:58.200Z,3.05
2023-04-04T11:36:45.861Z,3.14
2023-04-04T11:39:19.995Z,2.79
2023-04-04T11:42:10.645Z,2.90
2023-04-04T11:44:50.089Z,2.97
2023-04-04T11:47:23.273Z,3.25
2023-04-04T11:49:51.955Z,3.13
2023-04-04T11:52:19.302Z,2.79
2023-04-04T11:54:47.970Z,2.80
2023-04-04T11:57:17.645Z,2.78
2023-04-04T11:59:52.555Z,2.81
2023-04-04T12:02:27.845Z,3.15
2023-04-04T12:04:55.688Z,2.81
2023-04-04T12:07:27.177Z,2.69
2023-04-04T12:09:56.122Z,2.78
2023-04-04T12:12:23.403Z,2.90
2023-04-04T12:14:50.477Z,2.90
2023-04-04T12:17:17.948Z,2.77
2023-04-04T12:19:45.166Z,3.12
2023-04-04T12:22:12.256Z,2.79
2023-04-04T12:24:39.439Z,3.15
2023-04-04T12:27:07.535Z,3.68
2023-04-04T12:29:38.488Z,3.41
2023-04-04T12:32:07.889Z,2.61
2023-04-04T12:34:36.560Z,2.74
2023-04-04T12:37:04.455Z,2.13
2023-04-04T12:39:32.165Z,2.37
2023-04-04T12:42:04.403Z,2.23
2023-04-04T12:44:34.614Z,2.04
2023-04-04T12:47:04.856Z,2.18
2023-04-04T12:49:39.721Z,2.19
2023-04-04T12:52:09.361Z,2.15
2023-04-04T12:54:40.309Z,2.11
2023-04-04T12:57:08.370Z,2.16
2023-04-04T12:59:36.957Z,2.44
2023-04-04T13:02:16.536Z,2.15
2023-04-04T13:04:48.220Z,2.14
2023-04-04T13:07:32.666Z,1.92
2023-04-04T13:10:05.855Z,1.93
2023-04-04T13:12:57.123Z,1.94
2023-04-04T13:15:44.968Z,1.65
2023-04-04T13:18:16.532Z,1.84
2023-04-04T13:20:43.635Z,1.87
2023-04-04T13:23:10.686Z,1.83
2023-04-04T13:25:38.814Z,2.07
2023-04-04T13:28:06.642Z,1.96
2023-04-04T13:30:34.374Z,2.12
2023-04-04T13:33:01.435Z,2.09
2023-04-04T13:35:28.845Z,2.20
2023-04-04T13:37:55.889Z,2.40
2023-04-04T13:40:22.834Z,2.18
2023-04-04T13:42:50.930Z,2.16
2023-04-04T13:45:18.240Z,2.14
2023-04-04T13:47:45.841Z,2.25
2023-04-04T13:50:12.909Z,2.15
2023-04-04T13:52:39.837Z,2.03
2023-04-04T13:55:07.428Z,1.92
2023-04-04T13:57:34.340Z,1.83
2023-04-04T14:00:01.344Z,1.92
2023-04-04T14:02:29.045Z,2.09
2023-04-04T14:04:55.976Z,1.97
2023-04-04T14:07:23.060Z,2.00
2023-04-04T14:09:49.998Z,2.08
2023-04-04T14:12:17.034Z,2.24
2023-04-04T14:14:44.028Z,2.06
2023-04-04T14:17:11.054Z,2.34
2023-04-04T14:19:39.320Z,2.26
2023-04-04T14:22:06.689Z,2.05
2023-04-04T14:24:33.743Z,2.05
2023-04-04T14:27:01.590Z,2.31
2023-04-04T14:29:28.577Z,2.13
2023-04-04T14:31:58.498Z,2.19
2023-04-04T14:34:28.167Z,1.96
2023-04-04T14:36:55.342Z,2.25
2023-04-04T14:39:22.560Z,2.24
2023-04-04T14:41:49.720Z,1.92
2023-04-04T14:44:16.795Z,1.81
2023-04-04T14:46:45.022Z,1.97
2023-04-04T14:49:12.067Z,2.16
2023-04-04T14:51:39.160Z,2.32
2023-04-04T14:54:06.403Z,2.33
2023-04-04T14:56:33.347Z,2.06
2023-04-04T14:59:02.185Z,1.93
2023-04-04T15:01:29.614Z,2.02
2023-04-04T15:03:57.332Z,1.84
2023-04-04T15:06:24.538Z,1.74
2023-04-04T15:08:51.567Z,1.92
2023-04-04T15:11:18.580Z,1.97
2023-04-04T15:13:45.585Z,1.75
2023-04-04T15:16:12.625Z,1.68
2023-04-04T15:18:39.614Z,1.69
2023-04-04T15:21:06.629Z,1.77
2023-04-04T15:23:33.722Z,1.52
2023-04-04T15:26:00.782Z,1.35
2023-04-04T15:28:28.778Z,1.39
2023-04-04T15:30:57.149Z,1.30
2023-04-04T15:33:24.094Z,1.03
2023-04-04T15:35:51.189Z,0.90
2023-04-04T15:38:18.215Z,0.80
2023-04-04T15:40:45.239Z,0.73
2023-04-04T15:43:12.204Z,0.75
2023-04-04T15:45:39.676Z,0.97
2023-04-04T15:48:06.876Z,1.06
2023-04-04T15:50:33.930Z,1.11
2023-04-04T15:53:01.018Z,1.08
2023-04-04T15:55:28.176Z,1.06
2023-04-04T15:57:55.085Z,0.63
2023-04-04T16:00:22.327Z,0.81
2023-04-04T16:02:49.724Z,0.81
2023-04-04T16:05:16.820Z,0.76
2023-04-04T16:07:43.967Z,0.70
2023-04-04T16:10:11.202Z,0.56
2023-04-04T16:12:38.201Z,0.27
2023-04-04T16:15:07.249Z,0.50
2023-04-04T16:17:34.570Z,0.53
2023-04-04T16:20:01.959Z,0.47
2023-04-04T16:22:29.151Z,0.34
2023-04-04T16:24:56.143Z,0.45
2023-04-04T16:27:23.281Z,0.58
2023-04-04T16:29:50.276Z,0.56
2023-04-04T16:32:17.284Z,0.51
2023-04-04T16:34:44.294Z,0.45
2023-04-04T16:37:12.246Z,0.31
2023-04-04T16:39:39.358Z,0.33
2023-04-04T16:42:06.641Z,0.34
2023-04-04T16:44:33.700Z,0.40
2023-04-04T16:47:00.826Z,0.41
2023-04-04T16:49:28.451Z,0.28
2023-04-04T16:51:55.458Z,0.22
2023-04-04T16:54:22.616Z,0.19
2023-04-04T16:56:49.544Z,0.25
2023-04-04T16:59:17.428Z,0.23
2023-04-04T17:01:44.628Z,0.17
2023-04-04T17:04:11.650Z,0.15
2023-04-04T17:06:38.702Z,-0.07
2023-04-04T17:09:05.657Z,0.06
2023-04-04T17:11:32.657Z,0.17
2023-04-04T17:13:59.728Z,0.08
2023-04-04T17:16:27.134Z,0.03
2023-04-04T17:18:54.104Z,0.12
2023-04-04T17:21:21.453Z,0.21
2023-04-04T17:23:48.746Z,0.28
2023-04-04T17:26:15.715Z,0.30
2023-04-04T17:28:43.120Z,0.22
2023-04-04T17:31:10.253Z,0.16
2023-04-04T17:33:37.218Z,-0.02
2023-04-04T17:36:04.284Z,0.11
2023-04-04T17:38:31.251Z,-0.11
2023-04-04T17:41:04.468Z,0.06
2023-04-04T17:43:32.059Z,-0.12
2023-04-04T17:45:59.069Z,-0.11
2023-04-04T17:48:27.004Z,-0.08
2023-04-04T17:50:54.222Z,-0.09
2023-04-04T17:53:21.460Z,-0.11
2023-04-04T17:55:48.547Z,-0.12
2023-04-04T17:58:15.907Z,-0.12
2023-04-04T18:00:43.968Z,-0.11
2023-04-04T18:03:12.194Z,-0.11
2023-04-04T18:05:41.069Z,-0.17
2023-04-04T18:08:08.080Z,-0.17
2023-04-04T18:10:35.039Z,-0.25
2023-04-04T18:13:02.239Z,-0.26
2023-04-04T18:15:29.783Z,-0.25
2023-04-04T18:17:56.844Z,-0.28
2023-04-04T18:20:34.028Z,-0.31
2023-04-04T18:23:02.637Z,-0.30
2023-04-04T18:25:30.385Z,-0.19
2023-04-04T18:27:57.432Z,-0.22
2023-04-04T18:30:24.418Z,-0.20
2023-04-04T18:32:51.632Z,-0.14
2023-04-04T18:35:19.160Z,-0.10
2023-04-04T18:37:46.428Z,-0.09
2023-04-04T18:40:13.457Z,-0.29
2023-04-04T18:42:41.291Z,-0.18
2023-04-04T18:45:08.732Z,-0.24
2023-04-04T18:47:37.032Z,-0.35
2023-04-04T18:50:04.265Z,-0.21
2023-04-04T18:52:31.455Z,-0.25
2023-04-04T18:54:58.485Z,-0.36
2023-04-04T18:57:25.680Z,-0.45
2023-04-04T18:59:52.687Z,-0.43
2023-04-04T19:02:20.342Z,-0.57
2023-04-04T19:04:48.402Z,-0.51
2023-04-04T19:07:22.306Z,-0.66
2023-04-04T19:09:50.451Z,-0.77
2023-04-04T19:12:17.479Z,-0.76
2023-04-04T19:15:09.255Z,-0.77
2023-04-04T19:17:36.446Z,-0.79
2023-04-04T19:20:03.815Z,-0.85
2023-04-04T19:22:31.054Z,-0.90
2023-04-04T19:24:58.120Z,-0.90
2023-04-04T19:27:25.055Z,-0.86
2023-04-04T19:29:54.695Z,-0.97
2023-04-04T19:32:24.825Z,-1.22
2023-04-04T19:34:52.229Z,-1.18
2023-04-04T19:37:19.371Z,-1.25
2023-04-04T19:39:46.389Z,-1.21
2023-04-04T19:42:13.739Z,-1.31
2023-04-04T19:44:41.597Z,-1.29
2023-04-04T19:47:12.157Z,-1.29
2023-04-04T19:49:39.972Z,-1.30
2023-04-04T19:52:07.493Z,-1.33
2023-04-04T19:54:41.628Z,-1.37
2023-04-04T19:57:19.714Z,-1.50
2023-04-04T20:00:01.875Z,-1.41
2023-04-04T20:02:33.199Z,-1.43
2023-04-04T20:05:01.013Z,-1.51
2023-04-04T20:07:29.199Z,-1.54
2023-04-04T20:09:56.428Z,-1.70
2023-04-04T20:12:24.798Z,-1.71
2023-04-04T20:14:59.256Z,-1.61
2023-04-04T20:17:26.237Z,-1.62
2023-04-04T20:19:53.307Z,-1.75
2023-04-04T20:22:20.364Z,-1.78
2023-04-04T20:24:48.428Z,-1.71
2023-04-04T20:27:25.555Z,-1.81
2023-04-04T20:29:56.380Z,-1.74
2023-04-04T20:32:23.393Z,-1.81
2023-04-04T20:34:50.891Z,-1.85
2023-04-04T20:37:23.841Z,-1.81
2023-04-04T20:39:59.023Z,-1.85
2023-04-04T20:42:40.493Z,-1.88
2023-04-04T20:45:10.540Z,-1.94
2023-04-04T20:47:51.405Z,-1.99
2023-04-04T20:50:18.774Z,-2.02
2023-04-04T20:52:47.504Z,-2.06
2023-04-04T20:55:14.546Z,-2.17
2023-04-04T20:57:41.535Z,-2.18
2023-04-04T21:00:39.380Z,-2.18
2023-04-04T21:03:31.101Z,-2.38
2023-04-04T21:06:18.513Z,-2.35
2023-04-04T21:08:50.273Z,-2.36
2023-04-04T21:11:30.289Z,-2.40
2023-04-04T21:13:57.632Z,-2.44
2023-04-04T21:16:27.153Z,-2.49
2023-04-04T21:18:58.753Z,-2.57
2023-04-04T21:21:26.542Z,-2.60
2023-04-04T21:23:57.555Z,-2.68
2023-04-04T21:26:33.314Z,-2.75
2023-04-04T21:29:06.097Z,-2.79
2023-04-04T21:31:41.230Z,-2.77
2023-04-04T21:34:13.912Z,-2.74
2023-04-04T21:36:41.412Z,-2.81
2023-04-04T21:39:25.823Z,-2.83
2023-04-04T21:41:56.919Z,-2.82
2023-04-04T21:44:24.891Z,-2.84
2023-04-04T21:46:54.601Z,-2.84
2023-04-04T21:49:21.789Z,-2.89
2023-04-04T21:51:48.768Z,-3.10
2023-04-04T21:54:15.728Z,-3.08
2023-04-04T21:56:42.812Z,-3.22
2023-04-04T21:59:10.471Z,-2.98
2023-04-04T22:01:38.619Z,-2.97
2023-04-04T22:04:05.912Z,-3.08
2023-04-04T22:06:32.986Z,-2.96
2023-04-04T22:09:02.068Z,-3.05
2023-04-04T22:11:29.613Z,-3.00
2023-04-04T22:14:03.800Z,-3.05
2023-04-04T22:16:32.038Z,-3.05
2023-04-04T22:18:59.339Z,-3.11
2023-04-04T22:21:28.028Z,-3.23
2023-04-04T22:24:01.109Z,-3.31
2023-04-04T22:26:34.915Z,-3.34
2023-04-04T22:29:03.853Z,-3.44
2023-04-04T22:31:31.493Z,-3.52
2023-04-04T22:33:58.520Z,-3.52
2023-04-04T22:36:25.574Z,-3.55
2023-04-04T22:38:57.425Z,-3.51
2023-04-04T22:41:27.954Z,-3.55
2023-04-04T22:43:55.694Z,-3.54
2023-04-04T22:46:22.773Z,-3.63
2023-04-04T22:48:49.873Z,-3.63
2023-04-04T22:51:16.828Z,-3.63
2023-04-04T22:53:44.609Z,-3.66
2023-04-04T22:56:12.044Z,-3.73
2023-04-04T22:58:39.048Z,-3.70
2023-04-04T23:01:06.578Z,-3.68
2023-04-04T23:03:34.062Z,-3.66
2023-04-04T23:06:01.027Z,-3.83
2023-04-04T23:08:28.024Z,-3.86
2023-04-04T23:10:54.947Z,-3.91
2023-04-04T23:13:22.411Z,-3.92
2023-04-04T23:15:49.633Z,-3.88
2023-04-04T23:18:16.660Z,-3.89
2023-04-04T23:20:43.808Z,-3.88
2023-04-04T23:23:10.940Z,-3.91
2023-04-04T23:25:37.884Z,-3.88
2023-04-04T23:28:04.927Z,-3.89
2023-04-04T23:30:32.496Z,-3.98
2023-04-04T23:32:59.499Z,-4.10
2023-04-04T23:35:26.695Z,-4.15
2023-04-04T23:37:53.614Z,-4.16
2023-04-04T23:40:20.625Z,-4.12
2023-04-04T23:42:47.592Z,-4.11
2023-04-04T23:45:14.886Z,-4.09
2023-04-04T23:47:42.081Z,-4.16
2023-04-04T23:50:10.057Z,-4.13
2023-04-04T23:52:37.716Z,-4.08
2023-04-04T23:55:05.297Z,-4.06
2023-04-04T23:57:32.246Z,-4.06
2023-04-04T23:59:59.315Z,-4.03
